Terminal Aerodrome Forecast
Issued by NWS

Home | Current Version | Previous Version | Text Only | Print | Product List | Glossary On
Versions: 1 2 3 4 5 6 7 8 9 10 11 12 13 14 15 16 17
377
FTUS45 KTFX 140052 AAA
TAFHLN
TAF AMD
KHLN 140052Z 1401/1424 VRB03KT 6SM BR SCT015 SCT035
      TEMPO 1409/1413 1SM BR BKN010 OVC025
     FM141900 27007KT P6SM SCT060 BKN180=

USA.gov is the U.S. government's official web portal to all federal, state and local government web resources and services.